createdAt,value
2019-01-06T09:15:15.331Z,4.00
2019-01-06T09:20:41.985Z,4.20
2019-01-06T09:26:08.774Z,4.40
2019-01-06T09:31:29.166Z,4.60
2019-01-06T09:36:44.967Z,4.90
2019-01-06T09:42:12.177Z,4.90
2019-01-06T09:47:26.799Z,5.10
2019-01-06T09:52:37.598Z,5.30
2019-01-06T09:57:45.926Z,5.50
2019-01-06T10:03:12.735Z,5.60
2019-01-06T10:08:27.394Z,5.60
2019-01-06T10:13:57.028Z,5.90
2019-01-06T10:19:14.582Z,6.20
2019-01-06T10:24:35.622Z,6.50
2019-01-06T10:29:54.730Z,6.90
2019-01-06T10:35:12.191Z,7.00
2019-01-06T10:40:31.991Z,7.20
2019-01-06T10:45:45.705Z,7.40
2019-01-06T10:51:03.342Z,7.40
2019-01-06T10:56:29.839Z,7.80
2019-01-06T11:02:02.704Z,8.10
2019-01-06T11:07:29.440Z,8.40
2019-01-06T11:12:46.847Z,8.60
2019-01-06T11:18:00.406Z,8.80
2019-01-06T11:23:15.199Z,8.80
2019-01-06T11:28:30.088Z,9.00
2019-01-06T11:33:44.856Z,9.20
2019-01-06T11:38:58.395Z,9.80
2019-01-06T11:44:11.916Z,10.20
2019-01-06T11:49:44.939Z,10.70
2019-01-06T11:55:14.940Z,11.20
2019-01-06T12:00:39.902Z,11.70
2019-01-06T12:06:03.767Z,11.60
2019-01-06T12:11:30.448Z,11.70
2019-01-06T12:17:00.207Z,11.50
2019-01-06T12:22:18.230Z,11.90
2019-01-06T12:27:33.016Z,12.30
2019-01-06T12:32:47.663Z,12.50
2019-01-06T12:38:01.238Z,12.50
2019-01-06T12:43:31.256Z,12.80
2019-01-06T12:48:51.860Z,12.60
2019-01-06T12:54:05.092Z,12.10
2019-01-06T12:59:18.522Z,11.00
2019-01-06T13:04:31.983Z,10.70
2019-01-06T13:09:47.239Z,11.20
2019-01-06T13:15:07.819Z,11.80
2019-01-06T13:20:25.386Z,13.00
2019-01-06T13:25:39.187Z,13.20
2019-01-06T13:30:52.833Z,11.70
2019-01-06T13:36:06.594Z,10.70
2019-01-06T13:41:27.629Z,10.70
2019-01-06T13:46:42.703Z,10.90
2019-01-06T13:52:12.549Z,9.30
2019-01-06T13:57:31.462Z,10.10
2019-01-06T14:03:05.576Z,11.50
2019-01-06T14:08:23.222Z,9.50
2019-01-06T14:13:36.603Z,8.10
2019-01-06T14:19:03.373Z,7.60
2019-01-06T14:24:21.343Z,7.40
2019-01-06T14:29:44.072Z,7.10
2019-01-06T14:34:59.095Z,6.90
2019-01-06T14:40:17.923Z,6.70
2019-01-06T14:45:41.559Z,6.50
2019-01-06T14:50:54.885Z,6.50
2019-01-06T14:55:58.334Z,6.40
2019-01-06T15:01:17.285Z,6.30
2019-01-06T15:06:35.038Z,6.20
2019-01-06T15:11:48.223Z,6.20
2019-01-06T15:17:08.198Z,6.10
2019-01-06T15:22:21.838Z,5.90
2019-01-06T15:27:35.401Z,5.80
2019-01-06T15:32:55.511Z,5.70
2019-01-06T15:38:16.214Z,5.70
2019-01-06T15:43:29.686Z,5.60
2019-01-06T15:48:50.330Z,5.40
2019-01-06T15:54:10.966Z,5.30
2019-01-06T15:59:34.790Z,5.30
2019-01-06T16:04:52.406Z,5.30
2019-01-06T16:10:18.191Z,5.20
2019-01-06T16:15:31.536Z,5.10
2019-01-06T16:20:45.280Z,5.10
2019-01-06T16:26:15.362Z,5.20
2019-01-06T16:31:28.615Z,5.10
2019-01-06T16:36:42.037Z,5.10
2019-01-06T16:41:56.611Z,5.00
2019-01-06T16:47:11.502Z,4.80
2019-01-06T16:52:39.047Z,4.90
2019-01-06T16:57:52.656Z,4.80
2019-01-06T17:03:06.614Z,4.90
2019-01-06T17:08:20.273Z,4.90
2019-01-06T17:13:33.845Z,4.80
2019-01-06T17:18:47.080Z,4.70
2019-01-06T17:24:04.475Z,4.60
2019-01-06T17:29:38.006Z,4.80
2019-01-06T17:35:01.879Z,4.90
2019-01-06T17:40:30.183Z,4.80
2019-01-06T17:45:43.162Z,4.70
2019-01-06T17:51:09.879Z,4.60
2019-01-06T17:56:24.449Z,4.70
2019-01-06T18:01:51.139Z,4.60
2019-01-06T18:07:04.734Z,4.70
2019-01-06T18:12:17.958Z,4.70
2019-01-06T18:17:32.586Z,4.70
2019-01-06T18:22:56.405Z,4.70
2019-01-06T18:28:10.974Z,4.70
2019-01-06T18:33:35.286Z,4.70
2019-01-06T18:38:48.499Z,4.70
2019-01-06T18:44:21.208Z,4.60
2019-01-06T18:49:48.060Z,4.60
2019-01-06T18:55:09.540Z,4.50
2019-01-06T19:00:28.121Z,4.20
2019-01-06T19:05:42.718Z,4.00
2019-01-06T19:10:56.099Z,3.80
2019-01-06T19:16:10.350Z,3.60
2019-01-06T19:21:28.511Z,3.40
2019-01-06T19:26:57.853Z,3.30
2019-01-06T19:32:16.248Z,3.10
2019-01-06T19:37:30.832Z,2.90
2019-01-06T19:42:48.395Z,2.70
2019-01-06T19:48:18.111Z,2.60
2019-01-06T19:53:35.493Z,2.40
2019-01-06T19:59:02.207Z,2.40
2019-01-06T20:04:15.494Z,2.30
2019-01-06T20:09:32.006Z,2.20
2019-01-06T20:14:45.698Z,2.20
2019-01-06T20:20:01.342Z,2.10
2019-01-06T20:25:21.748Z,2.00
2019-01-06T20:30:35.151Z,1.90
2019-01-06T20:35:56.041Z,1.90
2019-01-06T20:41:12.192Z,1.80
2019-01-06T20:46:26.001Z,1.80
2019-01-06T20:51:35.615Z,1.80
2019-01-06T20:56:48.782Z,1.70
2019-01-06T21:02:15.657Z,1.60
2019-01-06T21:07:28.908Z,1.60
2019-01-06T21:12:56.570Z,1.50
2019-01-06T21:18:10.215Z,1.40
2019-01-06T21:23:23.399Z,1.40
2019-01-06T21:28:34.134Z,1.30
2019-01-06T21:33:51.647Z,1.30
2019-01-06T21:39:07.238Z,1.40
2019-01-06T21:44:20.522Z,1.30
2019-01-06T21:49:41.466Z,1.30
2019-01-06T21:55:11.401Z,1.40
2019-01-06T22:00:41.878Z,1.40
2019-01-06T22:05:55.286Z,1.50
2019-01-06T22:11:08.773Z,1.40
2019-01-06T22:16:22.297Z,1.40
2019-01-06T22:21:39.861Z,1.30
2019-01-06T22:26:53.109Z,1.30
2019-01-06T22:32:10.678Z,1.20
2019-01-06T22:37:28.498Z,1.10
2019-01-06T22:42:58.402Z,1.10
2019-01-06T22:48:21.815Z,1.10
2019-01-06T22:53:39.079Z,1.10
2019-01-06T22:58:52.240Z,1.10
2019-01-06T23:04:12.851Z,1.00
2019-01-06T23:09:31.814Z,1.00
2019-01-06T23:14:41.826Z,1.10
2019-01-06T23:20:08.413Z,1.00
2019-01-06T23:25:21.774Z,1.00
2019-01-06T23:30:48.029Z,1.00
2019-01-06T23:36:05.378Z,0.90
2019-01-06T23:41:38.129Z,0.90
2019-01-06T23:46:55.625Z,0.90
2019-01-06T23:52:16.262Z,0.80
2019-01-06T23:57:36.733Z,0.80
